Time;durP1;ratioP1;P1;durP2;ratioP2;P2;SDS_P1;SDS_P2;PMS_P1;PMS_P2;Temp;Humidity;BMP_temperature;BMP_pressure;BME280_temperature;BME280_humidity;BME280_pressure;Samples;Min_cycle;Max_cycle;Signal;HPM_P1;HPM_P2
2022/10/29 00:29:23;;;;;;;56.70;24.52;;;;;;;;;;5216486;27;20045;-77
2022/10/29 00:31:55;;;;;;;63.13;27.48;;;;;;;;;;5234899;27;20012;-77
2022/10/29 00:34:20;;;;;;;60.75;25.83;;;;;;;;;;5297331;26;20024;-77
2022/10/29 00:36:45;;;;;;;52.53;23.77;;;;;;;;;;5329037;26;20375;-77
2022/10/29 00:39:11;;;;;;;;;;;;;;;;;;5327665;26;20012;-67
2022/10/29 00:41:36;;;;;;;65.53;25.88;;;;;;;;;;5350507;26;19959;-68
2022/10/29 00:44:13;;;;;;;59.50;26.80;;;;;;;;;;5346688;26;20293;-68
2022/10/29 00:46:40;;;;;;;66.28;30.27;;;;;;;;;;5348197;26;20000;-68
2022/10/29 00:49:06;;;;;;;56.42;27.70;;;;;;;;;;5348912;26;20046;-67
2022/10/29 00:51:31;;;;;;;65.22;25.98;;;;;;;;;;5349925;26;20007;-68
2022/10/29 00:53:56;;;;;;;;;;;;;;;;;;5348271;26;20000;-68
2022/10/29 00:56:23;;;;;;;64.80;25.92;;;;;;;;;;5350486;26;19934;-68
2022/10/29 00:58:48;;;;;;;63.08;26.50;;;;;;;;;;5348690;26;20008;-68
2022/10/29 01:01:13;;;;;;;;;;;;;;;;;;5350610;26;20411;-70
2022/10/29 01:03:38;;;;;;;63.97;27.77;;;;;;;;;;5348729;26;19927;-68
2022/10/29 01:06:04;;;;;;;44.08;23.42;;;;;;;;;;5350564;26;20019;-68
2022/10/29 01:08:29;;;;;;;54.28;25.70;;;;;;;;;;5350258;26;19995;-68
2022/10/29 01:10:54;;;;;;;57.47;25.12;;;;;;;;;;5349025;26;20357;-68
2022/10/29 01:13:35;;;;;;;56.25;25.08;;;;;;;;;;5348067;26;20036;-68
2022/10/29 01:16:12;;;;;;;49.83;25.15;;;;;;;;;;5348574;26;20283;-69
2022/10/29 01:18:37;;;;;;;;;;;;;;;;;;5351368;26;20036;-69
2022/10/29 01:21:04;;;;;;;54.90;23.37;;;;;;;;;;5327891;26;19938;-68
2022/10/29 01:23:48;;;;;;;41.47;23.52;;;;;;;;;;5348304;26;20004;-68
2022/10/29 01:26:35;;;;;;;39.15;22.70;;;;;;;;;;5327960;26;20001;-68
2022/10/29 01:29:19;;;;;;;43.40;22.40;;;;;;;;;;5351030;26;19996;-68
2022/10/29 01:31:50;;;;;;;41.63;21.17;;;;;;;;;;5348721;26;20020;-70
2022/10/29 01:34:35;;;;;;;45.50;23.15;;;;;;;;;;5349677;26;20034;-69
2022/10/29 01:37:18;;;;;;;37.45;22.87;;;;;;;;;;5350155;26;20152;-68
2022/10/29 01:39:43;;;;;;;44.22;21.62;;;;;;;;;;5330458;26;20326;-69
2022/10/29 01:42:08;;;;;;;;;;;;;;;;;;5328258;27;20005;-69
2022/10/29 01:44:41;;;;;;;61.03;26.15;;;;;;;;;;5326399;27;19939;-69
2022/10/29 01:47:19;;;;;;;49.92;27.83;;;;;;;;;;5328848;27;19993;-69
2022/10/29 01:49:48;;;;;;;46.42;25.58;;;;;;;;;;5325645;27;20001;-69
2022/10/29 01:52:15;;;;;;;51.28;25.83;;;;;;;;;;5305998;27;20343;-67
2022/10/29 01:54:41;;;;;;;41.55;24.65;;;;;;;;;;5315309;27;20052;-67
2022/10/29 01:57:25;;;;;;;45.03;22.98;;;;;;;;;;5307443;27;20052;-69
2022/10/29 01:59:51;;;;;;;39.90;23.35;;;;;;;;;;5328595;27;20041;-69
2022/10/29 02:02:16;;;;;;;;;;;;;;;;;;5328795;27;20005;-68
2022/10/29 02:04:45;;;;;;;45.15;24.08;;;;;;;;;;5326882;27;19931;-69
2022/10/29 02:07:10;;;;;;;43.75;24.42;;;;;;;;;;5308074;27;20110;-68
2022/10/29 02:09:35;;;;;;;;;;;;;;;;;;5327639;27;20001;-68
2022/10/29 02:12:03;;;;;;;52.42;24.52;;;;;;;;;;5328014;27;19932;-68
2022/10/29 02:14:32;;;;;;;79.97;30.83;;;;;;;;;;5326973;27;20044;-69
2022/10/29 02:16:58;;;;;;;83.43;30.27;;;;;;;;;;5327777;27;20031;-69
2022/10/29 02:19:28;;;;;;;111.50;30.83;;;;;;;;;;5327701;27;20004;-70
2022/10/29 02:21:53;;;;;;;68.90;27.60;;;;;;;;;;5327597;27;20009;-68
2022/10/29 02:24:18;;;;;;;;;;;;;;;;;;5305843;27;20000;-68
2022/10/29 02:26:43;;;;;;;85.43;30.40;;;;;;;;;;5326491;27;19927;-68
2022/10/29 02:29:08;;;;;;;77.85;28.73;;;;;;;;;;5329338;27;20001;-68
2022/10/29 02:31:35;;;;;;;117.80;32.20;;;;;;;;;;5328472;27;20000;-68
2022/10/29 02:34:00;;;;;;;78.70;30.50;;;;;;;;;;5307896;27;20013;-70
2022/10/29 02:36:25;;;;;;;;;;;;;;;;;;5307492;27;20108;-68
2022/10/29 02:38:50;;;;;;;67.28;27.27;;;;;;;;;;5326970;26;19932;-68
2022/10/29 02:41:15;;;;;;;69.37;29.05;;;;;;;;;;5308231;27;20363;-69
2022/10/29 02:43:40;;;;;;;61.47;27.83;;;;;;;;;;5327235;27;20068;-68
2022/10/29 02:46:12;;;;;;;55.47;29.45;;;;;;;;;;5309149;27;20000;-69
2022/10/29 02:48:37;;;;;;;62.50;33.95;;;;;;;;;;5327740;27;20016;-68
2022/10/29 02:51:02;;;;;;;;;;;;;;;;;;5327565;27;20048;-67
2022/10/29 02:53:28;;;;;;;83.47;31.92;;;;;;;;;;5328980;27;19936;-69
2022/10/29 02:55:53;;;;;;;69.90;32.05;;;;;;;;;;5309370;27;19997;-69
2022/10/29 02:58:18;;;;;;;52.85;29.25;;;;;;;;;;5327253;27;19997;-69
2022/10/29 03:00:43;;;;;;;56.42;30.80;;;;;;;;;;5326646;27;20334;-69
2022/10/29 03:03:08;;;;;;;59.10;31.95;;;;;;;;;;5309147;27;20011;-69
2022/10/29 03:05:33;;;;;;;59.15;32.50;;;;;;;;;;5327350;27;20001;-68
2022/10/29 03:07:59;;;;;;;68.68;35.20;;;;;;;;;;5328062;27;20011;-69
2022/10/29 03:10:24;;;;;;;52.60;30.88;;;;;;;;;;5306855;27;20001;-69
2022/10/29 03:12:49;;;;;;;53.85;32.55;;;;;;;;;;5329139;27;20007;-69
2022/10/29 03:15:14;;;;;;;;;;;;;;;;;;5328772;27;20024;-69
2022/10/29 03:17:39;;;;;;;48.85;29.37;;;;;;;;;;5329546;27;19961;-68
2022/10/29 03:20:05;;;;;;;53.72;33.13;;;;;;;;;;5328887;27;20061;-68
2022/10/29 03:22:30;;;;;;;52.60;30.92;;;;;;;;;;5329611;27;20004;-68
2022/10/29 03:24:55;;;;;;;67.12;38.80;;;;;;;;;;5329375;27;20036;-68
2022/10/29 03:27:20;;;;;;;60.75;35.60;;;;;;;;;;5326782;27;20007;-68
2022/10/29 03:29:45;;;;;;;;;;;;;;;;;;5329589;27;20005;-68
2022/10/29 03:32:10;;;;;;;65.25;38.10;;;;;;;;;;5327016;27;19972;-69
2022/10/29 03:34:35;;;;;;;57.45;36.42;;;;;;;;;;5326525;27;20000;-69
2022/10/29 03:37:01;;;;;;;49.22;32.22;;;;;;;;;;5306539;27;20000;-68
2022/10/29 03:39:26;;;;;;;53.05;35.33;;;;;;;;;;5326912;26;20035;-69
2022/10/29 03:41:51;;;;;;;56.65;35.53;;;;;;;;;;5306693;27;20017;-68
2022/10/29 03:44:16;;;;;;;62.40;37.22;;;;;;;;;;5329378;27;20000;-69
2022/10/29 03:46:41;;;;;;;65.97;39.92;;;;;;;;;;5326966;27;20015;-68
2022/10/29 03:49:07;;;;;;;52.03;36.95;;;;;;;;;;5328819;27;20001;-69
2022/10/29 03:51:32;;;;;;;;;;;;;;;;;;5307000;27;20432;-69
2022/10/29 03:53:57;;;;;;;50.33;32.58;;;;;;;;;;5329510;27;19951;-68
2022/10/29 03:56:22;;;;;;;52.00;34.63;;;;;;;;;;5326438;27;20000;-68
2022/10/29 03:58:47;;;;;;;58.15;35.42;;;;;;;;;;5328771;27;20034;-68
2022/10/29 04:01:12;;;;;;;;;;;;;;;;;;5327144;27;20361;-70
2022/10/29 04:03:40;;;;;;;59.33;34.85;;;;;;;;;;5306386;27;19939;-69
2022/10/29 04:06:13;;;;;;;52.95;31.85;;;;;;;;;;5328688;27;20044;-67
2022/10/29 04:08:38;;;;;;;52.20;32.90;;;;;;;;;;5317593;27;20048;-69
2022/10/29 04:11:03;;;;;;;;;;;;;;;;;;5329327;27;20004;-69
2022/10/29 04:13:29;;;;;;;50.10;31.55;;;;;;;;;;5326663;27;19933;-69
2022/10/29 04:15:54;;;;;;;55.12;33.63;;;;;;;;;;5307468;27;20097;-69
2022/10/29 04:18:19;;;;;;;;;;;;;;;;;;5309049;27;19996;-68
2022/10/29 04:20:45;;;;;;;48.33;32.42;;;;;;;;;;5328624;27;19947;-68
2022/10/29 04:23:10;;;;;;;45.60;30.85;;;;;;;;;;5325913;27;20038;-68
2022/10/29 04:25:35;;;;;;;44.88;29.15;;;;;;;;;;5329280;27;20028;-69
2022/10/29 04:28:00;;;;;;;52.72;31.42;;;;;;;;;;5329069;27;20015;-69
2022/10/29 04:30:25;;;;;;;39.35;28.77;;;;;;;;;;5328594;27;20000;-69
2022/10/29 04:32:54;;;;;;;45.95;29.15;;;;;;;;;;5327426;27;20000;-68
2022/10/29 04:35:19;;;;;;;43.95;28.60;;;;;;;;;;5324624;27;20024;-68
2022/10/29 04:37:44;;;;;;;;;;;;;;;;;;5327000;27;20142;-68
2022/10/29 04:40:09;;;;;;;47.22;27.15;;;;;;;;;;5305821;27;19936;-72
2022/10/29 04:42:35;;;;;;;;;;;;;;;;;;5326764;27;20168;-68
2022/10/29 04:45:00;;;;;;;39.70;26.85;;;;;;;;;;5328364;27;19927;-68
2022/10/29 04:47:25;;;;;;;;;;;;;;;;;;5326980;27;20490;-68
2022/10/29 04:49:50;;;;;;;46.60;25.37;;;;;;;;;;5325754;27;19939;-70
2022/10/29 04:52:15;;;;;;;35.08;24.58;;;;;;;;;;5326160;27;20001;-69
2022/10/29 04:54:40;;;;;;;53.25;29.52;;;;;;;;;;5328455;27;20000;-69
2022/10/29 04:57:06;;;;;;;40.90;24.52;;;;;;;;;;5326305;27;20064;-68
2022/10/29 04:59:31;;;;;;;43.38;27.50;;;;;;;;;;5326768;27;20031;-69
2022/10/29 05:01:56;;;;;;;39.22;26.20;;;;;;;;;;5328743;27;20062;-70
2022/10/29 05:04:21;;;;;;;38.88;23.33;;;;;;;;;;5327764;27;20011;-68
2022/10/29 05:06:46;;;;;;;44.20;28.58;;;;;;;;;;5326551;27;20011;-69
2022/10/29 05:09:11;;;;;;;44.83;25.42;;;;;;;;;;5325788;27;20004;-68
2022/10/29 05:11:37;;;;;;;40.95;24.42;;;;;;;;;;5308391;27;20000;-67
2022/10/29 05:14:02;;;;;;;39.05;25.12;;;;;;;;;;5305957;27;20361;-68
2022/10/29 05:16:27;;;;;;;45.58;29.63;;;;;;;;;;5328276;27;20001;-69
2022/10/29 05:18:52;;;;;;;43.35;25.92;;;;;;;;;;5325792;27;20343;-69
2022/10/29 05:21:17;;;;;;;41.67;26.02;;;;;;;;;;5307456;27;20052;-69
2022/10/29 05:23:42;;;;;;;36.45;24.45;;;;;;;;;;5307908;27;20007;-68
2022/10/29 05:26:08;;;;;;;39.53;25.10;;;;;;;;;;5327934;27;20005;-68
2022/10/29 05:28:33;;;;;;;38.75;26.80;;;;;;;;;;5328031;27;20001;-69
2022/10/29 05:30:58;;;;;;;;;;;;;;;;;;5325953;27;20089;-69
2022/10/29 05:33:23;;;;;;;36.85;24.67;;;;;;;;;;5326377;27;20290;-69
2022/10/29 05:35:49;;;;;;;47.58;29.12;;;;;;;;;;5326227;27;20001;-68
2022/10/29 05:38:14;;;;;;;46.15;31.15;;;;;;;;;;5325509;26;20023;-69
2022/10/29 05:40:41;;;;;;;29.15;22.75;;;;;;;;;;5305579;27;20117;-68
2022/10/29 05:43:06;;;;;;;48.33;31.33;;;;;;;;;;5328376;27;20015;-68
2022/10/29 05:45:31;;;;;;;47.55;32.45;;;;;;;;;;5308090;27;20004;-69
2022/10/29 05:47:58;;;;;;;47.33;29.80;;;;;;;;;;5326186;27;20001;-68
2022/10/29 05:50:23;;;;;;;47.38;31.25;;;;;;;;;;5306302;27;20011;-68
2022/10/29 05:52:55;;;;;;;43.67;30.05;;;;;;;;;;5326537;27;20000;-68
2022/10/29 05:55:20;;;;;;;47.42;31.23;;;;;;;;;;5306167;27;20012;-69
2022/10/29 05:57:45;;;;;;;;;;;;;;;;;;5306102;27;20001;-67
2022/10/29 06:00:11;;;;;;;46.67;29.15;;;;;;;;;;5326983;27;19927;-67
2022/10/29 06:02:36;;;;;;;38.53;28.77;;;;;;;;;;5325921;27;20031;-68
2022/10/29 06:05:01;;;;;;;41.53;26.80;;;;;;;;;;5325677;27;20018;-68
2022/10/29 06:07:26;;;;;;;46.10;31.50;;;;;;;;;;5325625;27;20015;-68
2022/10/29 06:09:52;;;;;;;46.65;31.12;;;;;;;;;;5326114;27;20419;-67
2022/10/29 06:12:17;;;;;;;40.55;29.40;;;;;;;;;;5307238;27;20056;-67
2022/10/29 06:14:42;;;;;;;47.47;29.95;;;;;;;;;;5327463;27;20005;-69
2022/10/29 06:17:07;;;;;;;38.45;27.65;;;;;;;;;;5327780;27;20010;-69
2022/10/29 06:19:32;;;;;;;51.25;29.70;;;;;;;;;;5306473;27;20009;-69
2022/10/29 06:21:57;;;;;;;41.83;25.25;;;;;;;;;;5305483;27;20015;-70
2022/10/29 06:24:23;;;;;;;44.15;27.58;;;;;;;;;;5326420;27;20015;-69
2022/10/29 06:26:48;;;;;;;53.90;31.80;;;;;;;;;;5316614;27;20345;-67
2022/10/29 06:29:13;;;;;;;50.53;30.30;;;;;;;;;;5326342;27;20005;-69
2022/10/29 06:31:38;;;;;;;41.75;29.67;;;;;;;;;;5327543;27;20001;-69
2022/10/29 06:34:03;;;;;;;55.33;33.53;;;;;;;;;;5307654;27;20015;-69
2022/10/29 06:36:28;;;;;;;48.35;31.27;;;;;;;;;;5325172;27;20374;-69
2022/10/29 06:38:54;;;;;;;54.17;33.40;;;;;;;;;;5304928;27;20017;-69
2022/10/29 06:41:23;;;;;;;44.47;29.55;;;;;;;;;;5325794;27;20118;-69
2022/10/29 06:43:49;;;;;;;51.90;33.63;;;;;;;;;;5325501;27;20434;-69
2022/10/29 06:46:14;;;;;;;;;;;;;;;;;;5327552;27;20016;-69
2022/10/29 06:48:39;;;;;;;56.72;32.40;;;;;;;;;;5325506;27;19964;-69
2022/10/29 06:51:04;;;;;;;67.18;34.03;;;;;;;;;;5328043;27;20004;-69
2022/10/29 06:53:29;;;;;;;55.90;32.58;;;;;;;;;;5325310;27;20009;-69
2022/10/29 06:55:55;;;;;;;59.80;37.85;;;;;;;;;;5325333;27;20077;-69
2022/10/29 06:58:20;;;;;;;68.43;37.40;;;;;;;;;;5327464;27;20331;-69
2022/10/29 07:00:45;;;;;;;67.18;37.88;;;;;;;;;;5326190;27;20119;-68
2022/10/29 07:03:11;;;;;;;79.20;50.58;;;;;;;;;;5327679;27;20004;-70
2022/10/29 07:05:37;;;;;;;47.78;31.77;;;;;;;;;;5325103;27;20425;-69
2022/10/29 07:08:02;;;;;;;54.72;35.15;;;;;;;;;;5307576;27;20004;-69
2022/10/29 07:10:28;;;;;;;58.63;35.20;;;;;;;;;;5307226;27;20056;-69
2022/10/29 07:12:54;;;;;;;60.00;33.97;;;;;;;;;;5305559;27;20012;-69
2022/10/29 07:15:19;;;;;;;65.22;34.15;;;;;;;;;;5327469;27;20042;-70
2022/10/29 07:17:58;;;;;;;58.55;34.60;;;;;;;;;;5326710;27;20310;-69
2022/10/29 07:20:23;;;;;;;61.20;36.63;;;;;;;;;;5326313;27;20032;-69
2022/10/29 07:22:48;;;;;;;54.92;34.53;;;;;;;;;;5327735;27;20005;-69
2022/10/29 07:25:13;;;;;;;53.63;36.22;;;;;;;;;;5323075;27;20310;-69
2022/10/29 07:27:38;;;;;;;63.47;38.25;;;;;;;;;;5326144;27;20375;-69
2022/10/29 07:30:04;;;;;;;60.55;38.55;;;;;;;;;;5326365;27;20168;-69
2022/10/29 07:32:29;;;;;;;55.88;36.13;;;;;;;;;;5328454;27;20016;-69
2022/10/29 07:34:54;;;;;;;56.47;37.20;;;;;;;;;;5328995;27;20004;-68
2022/10/29 07:37:19;;;;;;;51.78;36.35;;;;;;;;;;5326233;27;20011;-69
2022/10/29 07:39:45;;;;;;;45.10;33.67;;;;;;;;;;5306338;27;20085;-68
2022/10/29 07:42:10;;;;;;;53.87;35.35;;;;;;;;;;5326676;27;20004;-69
2022/10/29 07:44:35;;;;;;;47.22;32.47;;;;;;;;;;5328562;27;20037;-69
2022/10/29 07:47:01;;;;;;;46.00;32.95;;;;;;;;;;5306282;27;20008;-70
2022/10/29 07:49:27;;;;;;;51.17;32.42;;;;;;;;;;5308267;27;19997;-69
2022/10/29 07:51:52;;;;;;;46.55;32.58;;;;;;;;;;5308636;27;19996;-69
2022/10/29 07:54:17;;;;;;;46.92;31.42;;;;;;;;;;5328207;27;20037;-68
2022/10/29 07:56:42;;;;;;;52.93;31.97;;;;;;;;;;5326219;27;20334;-69
2022/10/29 07:59:08;;;;;;;45.17;29.98;;;;;;;;;;5326264;27;20111;-68
2022/10/29 08:01:33;;;;;;;44.20;27.92;;;;;;;;;;5328519;27;20428;-68
2022/10/29 08:03:58;;;;;;;45.58;29.48;;;;;;;;;;5328469;27;20045;-70
2022/10/29 08:06:23;;;;;;;50.70;28.38;;;;;;;;;;5325699;27;20040;-69
2022/10/29 08:08:48;;;;;;;49.05;28.30;;;;;;;;;;5308278;27;20322;-69
2022/10/29 08:11:13;;;;;;;47.58;26.87;;;;;;;;;;5327677;27;20001;-69
2022/10/29 08:13:39;;;;;;;41.67;25.45;;;;;;;;;;5327233;27;20000;-69
2022/10/29 08:16:04;;;;;;;45.03;25.92;;;;;;;;;;5305976;27;20000;-68
2022/10/29 08:18:29;;;;;;;42.58;26.00;;;;;;;;;;5324951;27;20457;-71
2022/10/29 08:20:54;;;;;;;43.63;25.30;;;;;;;;;;5326251;27;20001;-69
2022/10/29 08:23:20;;;;;;;43.80;25.00;;;;;;;;;;5328293;27;20015;-68
2022/10/29 08:25:45;;;;;;;38.97;25.12;;;;;;;;;;5325971;27;20040;-69
2022/10/29 08:28:11;;;;;;;38.60;24.27;;;;;;;;;;5319399;27;20342;-69
2022/10/29 08:30:37;;;;;;;37.63;23.62;;;;;;;;;;5308125;27;20035;-68
2022/10/29 08:33:03;;;;;;;43.17;23.12;;;;;;;;;;5325625;27;20000;-69
2022/10/29 08:35:28;;;;;;;40.28;24.30;;;;;;;;;;5328442;27;20004;-68
2022/10/29 08:37:53;;;;;;;42.97;22.50;;;;;;;;;;5326129;27;20413;-68
2022/10/29 08:40:21;;;;;;;42.53;22.48;;;;;;;;;;5325792;26;20021;-68
2022/10/29 08:42:47;;;;;;;44.83;23.40;;;;;;;;;;5327668;27;20004;-70
2022/10/29 08:45:30;;;;;;;42.05;23.85;;;;;;;;;;5328033;27;20001;-69
2022/10/29 08:48:18;;;;;;;33.83;23.12;;;;;;;;;;5305801;27;20003;-69
2022/10/29 08:50:46;;;;;;;35.97;21.85;;;;;;;;;;5320128;27;20005;-68
2022/10/29 08:53:21;;;;;;;41.85;23.08;;;;;;;;;;5327578;27;20005;-68
2022/10/29 08:55:47;;;;;;;38.88;22.52;;;;;;;;;;5320608;27;20006;-69
2022/10/29 08:58:20;;;;;;;39.78;22.08;;;;;;;;;;5327358;27;20001;-69
2022/10/29 09:00:47;;;;;;;39.95;24.08;;;;;;;;;;5318505;27;20071;-69
2022/10/29 09:03:12;;;;;;;41.22;21.83;;;;;;;;;;5327641;27;20020;-69
2022/10/29 09:05:58;;;;;;;28.62;21.85;;;;;;;;;;5326931;27;20012;-68
2022/10/29 09:08:26;;;;;;;34.28;20.67;;;;;;;;;;5326424;27;20005;-69
2022/10/29 09:10:55;;;;;;;33.03;19.90;;;;;;;;;;5306393;27;20025;-69
2022/10/29 09:13:41;;;;;;;37.50;20.67;;;;;;;;;;5321029;27;20335;-68
2022/10/29 09:16:30;;;;;;;39.42;20.48;;;;;;;;;;5279660;27;20035;-68
2022/10/29 09:19:13;;;;;;;31.02;19.70;;;;;;;;;;5326150;27;20009;-69
2022/10/29 09:21:59;;;;;;;35.15;18.75;;;;;;;;;;5325024;27;20019;-70
2022/10/29 09:24:34;;;;;;;46.10;22.45;;;;;;;;;;5327988;27;20460;-68
2022/10/29 09:27:02;;;;;;;28.95;19.67;;;;;;;;;;5326525;27;20055;-69
2022/10/29 09:29:35;;;;;;;31.42;21.15;;;;;;;;;;5325607;27;20005;-67
2022/10/29 09:32:02;;;;;;;33.22;19.75;;;;;;;;;;5305629;27;20297;-68
2022/10/29 09:34:39;;;;;;;26.58;17.20;;;;;;;;;;5327510;27;20019;-70
2022/10/29 09:37:15;;;;;;;25.23;17.15;;;;;;;;;;5327199;27;20033;-70
2022/10/29 09:39:42;;;;;;;26.90;17.60;;;;;;;;;;5325727;26;20021;-69
2022/10/29 09:42:09;;;;;;;27.62;18.70;;;;;;;;;;5304852;27;20016;-69
2022/10/29 09:44:56;;;;;;;28.48;17.52;;;;;;;;;;5327596;27;20317;-68
2022/10/29 09:47:21;;;;;;;;;;;;;;;;;;5307346;27;20007;-69
2022/10/29 09:49:58;;;;;;;33.80;18.10;;;;;;;;;;5327587;27;20317;-69
2022/10/29 09:52:26;;;;;;;29.58;15.98;;;;;;;;;;5307828;27;20021;-69
2022/10/29 09:54:53;;;;;;;31.40;16.92;;;;;;;;;;5326016;27;20431;-69
2022/10/29 09:57:20;;;;;;;37.85;16.58;;;;;;;;;;5321196;27;20004;-68
2022/10/29 09:59:56;;;;;;;37.00;18.12;;;;;;;;;;5326709;27;20000;-68
2022/10/29 10:02:21;;;;;;;;;;;;;;;;;;5305140;27;20023;-69
2022/10/29 10:04:48;;;;;;;35.72;17.10;;;;;;;;;;5305081;27;19954;-69
2022/10/29 10:07:17;;;;;;;27.10;16.37;;;;;;;;;;5327446;27;20005;-69
2022/10/29 10:09:48;;;;;;;32.92;16.42;;;;;;;;;;5294636;27;20017;-68
2022/10/29 10:12:13;;;;;;;30.60;16.02;;;;;;;;;;5323719;27;20402;-67
2022/10/29 10:14:38;;;;;;;26.33;15.63;;;;;;;;;;5306091;27;20015;-68
2022/10/29 10:17:05;;;;;;;30.35;15.30;;;;;;;;;;5300874;27;19997;-68
2022/10/29 10:19:31;;;;;;;27.70;14.95;;;;;;;;;;5326103;27;20015;-68
2022/10/29 10:21:58;;;;;;;29.45;15.48;;;;;;;;;;5306007;27;20052;-68
2022/10/29 10:24:37;;;;;;;27.02;14.50;;;;;;;;;;5326546;27;20033;-68
2022/10/29 10:27:28;;;;;;;30.02;14.43;;;;;;;;;;5305088;27;20065;-69
2022/10/29 10:30:02;;;;;;;26.50;14.82;;;;;;;;;;5315392;27;20396;-68
2022/10/29 10:32:27;;;;;;;27.45;13.88;;;;;;;;;;5326176;27;20384;-68
2022/10/29 10:34:53;;;;;;;22.13;12.35;;;;;;;;;;5307533;27;20000;-69
2022/10/29 10:37:19;;;;;;;28.23;14.23;;;;;;;;;;5327907;27;20015;-67
2022/10/29 10:39:46;;;;;;;22.13;12.68;;;;;;;;;;5325700;26;20033;-68
2022/10/29 10:42:35;;;;;;;26.87;14.75;;;;;;;;;;5324679;27;20020;-68
2022/10/29 10:45:02;;;;;;;23.20;13.23;;;;;;;;;;5320784;27;20137;-68
2022/10/29 10:47:29;;;;;;;29.83;13.20;;;;;;;;;;5325408;27;20011;-68
2022/10/29 10:50:08;;;;;;;22.62;12.68;;;;;;;;;;5325716;27;20060;-68
2022/10/29 10:52:34;;;;;;;23.27;11.93;;;;;;;;;;5329150;27;20007;-67
2022/10/29 10:55:01;;;;;;;26.50;11.57;;;;;;;;;;5307465;27;20374;-68
2022/10/29 10:57:53;;;;;;;24.00;12.30;;;;;;;;;;5322755;27;20432;-68
2022/10/29 11:00:19;;;;;;;16.23;10.85;;;;;;;;;;5323738;27;20033;-68
2022/10/29 11:03:05;;;;;;;20.33;10.75;;;;;;;;;;5308890;27;20009;-68
2022/10/29 11:05:39;;;;;;;22.27;10.52;;;;;;;;;;5280814;27;20016;-69
2022/10/29 11:08:10;;;;;;;21.85;10.95;;;;;;;;;;5327780;27;20005;-70
2022/10/29 11:10:39;;;;;;;23.67;11.80;;;;;;;;;;5306423;27;20048;-69
2022/10/29 11:13:08;;;;;;;22.45;10.48;;;;;;;;;;5328800;27;20015;-68
2022/10/29 11:15:36;;;;;;;26.67;11.10;;;;;;;;;;5327903;27;20056;-69
2022/10/29 11:18:08;;;;;;;22.48;10.05;;;;;;;;;;5306241;27;20022;-68
2022/10/29 11:20:35;;;;;;;18.12;10.02;;;;;;;;;;5307400;27;20011;-69
2022/10/29 11:23:15;;;;;;;17.17;10.07;;;;;;;;;;5305743;27;20027;-69
2022/10/29 11:25:49;;;;;;;21.12;12.27;;;;;;;;;;5329146;27;20014;-68
2022/10/29 11:28:19;;;;;;;22.67;11.60;;;;;;;;;;5325937;27;20383;-69
2022/10/29 11:30:49;;;;;;;28.35;11.35;;;;;;;;;;5328284;27;19996;-69
2022/10/29 11:33:14;;;;;;;26.55;11.38;;;;;;;;;;5308618;27;20005;-69
2022/10/29 11:35:54;;;;;;;17.27;10.13;;;;;;;;;;5326174;27;20058;-69
2022/10/29 11:38:32;;;;;;;22.10;10.43;;;;;;;;;;5327032;26;20100;-68
2022/10/29 11:40:57;;;;;;;18.33;10.88;;;;;;;;;;5326027;27;20075;-68
2022/10/29 11:43:22;;;;;;;19.80;10.02;;;;;;;;;;5326335;27;20042;-69
2022/10/29 11:45:51;;;;;;;22.60;10.57;;;;;;;;;;5327446;27;20395;-68
2022/10/29 11:48:22;;;;;;;21.35;10.13;;;;;;;;;;5328145;27;20036;-69
2022/10/29 11:50:58;;;;;;;17.92;10.18;;;;;;;;;;5325986;27;20034;-69
2022/10/29 11:53:47;;;;;;;21.75;8.65;;;;;;;;;;5326290;27;19993;-69
2022/10/29 11:56:23;;;;;;;18.15;9.35;;;;;;;;;;5325931;27;20001;-70
2022/10/29 11:58:53;;;;;;;22.37;8.33;;;;;;;;;;5307537;27;20383;-70
2022/10/29 12:01:22;;;;;;;17.60;8.48;;;;;;;;;;5327565;27;20194;-67
2022/10/29 12:03:48;;;;;;;20.58;8.60;;;;;;;;;;5326829;27;20048;-68
2022/10/29 12:06:33;;;;;;;17.57;7.97;;;;;;;;;;5327778;27;20001;-69
2022/10/29 12:09:21;;;;;;;18.75;7.93;;;;;;;;;;5299440;27;20107;-69
2022/10/29 12:12:05;;;;;;;17.33;7.82;;;;;;;;;;5325691;27;20075;-68
2022/10/29 12:14:40;;;;;;;18.62;8.02;;;;;;;;;;5325177;27;20005;-68
2022/10/29 12:17:06;;;;;;;20.65;8.50;;;;;;;;;;5327135;27;20000;-70
2022/10/29 12:19:41;;;;;;;21.85;8.32;;;;;;;;;;5325542;27;20031;-70
2022/10/29 12:22:06;;;;;;;23.25;8.68;;;;;;;;;;5305665;27;20441;-69
2022/10/29 12:24:45;;;;;;;19.48;8.05;;;;;;;;;;5328642;27;20011;-68
2022/10/29 12:27:26;;;;;;;20.20;7.93;;;;;;;;;;5328761;27;20209;-69
2022/10/29 12:30:00;;;;;;;16.48;7.43;;;;;;;;;;5327888;27;20037;-68
2022/10/29 12:32:25;;;;;;;14.73;7.65;;;;;;;;;;5326234;27;20011;-69
2022/10/29 12:34:50;;;;;;;16.90;7.55;;;;;;;;;;5327452;27;20001;-70
2022/10/29 12:37:15;;;;;;;16.27;7.93;;;;;;;;;;5325344;27;20349;-69
2022/10/29 12:39:45;;;;;;;13.65;7.15;;;;;;;;;;5325815;26;20020;-69
2022/10/29 12:42:31;;;;;;;18.10;7.70;;;;;;;;;;5325106;27;20149;-69
2022/10/29 12:45:02;;;;;;;20.00;8.07;;;;;;;;;;5319482;27;20032;-69
2022/10/29 12:47:48;;;;;;;19.92;7.95;;;;;;;;;;5327988;27;20329;-70
2022/10/29 12:50:33;;;;;;;16.75;6.65;;;;;;;;;;5305770;27;20322;-69
2022/10/29 12:53:21;;;;;;;26.00;8.13;;;;;;;;;;5319248;27;20001;-69
2022/10/29 12:55:47;;;;;;;18.87;7.78;;;;;;;;;;5314309;27;20038;-69
2022/10/29 12:58:31;;;;;;;15.52;7.62;;;;;;;;;;5326136;27;20000;-70
2022/10/29 13:00:56;;;;;;;12.93;6.65;;;;;;;;;;5325215;27;20068;-69
2022/10/29 13:03:40;;;;;;;21.25;8.60;;;;;;;;;;5326375;27;20005;-69
2022/10/29 13:06:24;;;;;;;16.60;6.37;;;;;;;;;;5328309;27;20355;-69
2022/10/29 13:08:56;;;;;;;20.58;7.40;;;;;;;;;;5326204;27;20004;-69
2022/10/29 13:11:23;;;;;;;19.77;7.20;;;;;;;;;;5325690;27;20001;-69
2022/10/29 13:13:51;;;;;;;20.85;7.12;;;;;;;;;;5325346;27;20008;-68
2022/10/29 13:16:19;;;;;;;16.80;7.28;;;;;;;;;;5325302;27;20032;-69
2022/10/29 13:18:47;;;;;;;15.32;6.00;;;;;;;;;;5305122;27;20000;-70
2022/10/29 13:21:32;;;;;;;16.45;6.85;;;;;;;;;;5325170;27;20005;-69
2022/10/29 13:24:02;;;;;;;15.05;6.43;;;;;;;;;;5325306;27;20015;-69
2022/10/29 13:26:47;;;;;;;22.17;7.78;;;;;;;;;;5307459;27;20004;-68
2022/10/29 13:29:32;;;;;;;18.25;7.53;;;;;;;;;;5305984;27;20318;-69
2022/10/29 13:32:00;;;;;;;15.02;6.65;;;;;;;;;;5325587;27;20015;-70
2022/10/29 13:34:44;;;;;;;23.60;8.32;;;;;;;;;;5325543;27;20000;-68
2022/10/29 13:37:28;;;;;;;20.10;7.93;;;;;;;;;;5326590;27;20005;-69
2022/10/29 13:40:26;;;;;;;15.00;7.50;;;;;;;;;;5305273;27;20374;-70
2022/10/29 13:42:57;;;;;;;20.42;8.27;;;;;;;;;;5325384;27;20009;-69
2022/10/29 13:45:22;;;;;;;21.95;8.60;;;;;;;;;;5327706;27;20021;-69
2022/10/29 13:47:48;;;;;;;15.15;8.00;;;;;;;;;;5326477;27;20007;-68
2022/10/29 13:50:15;;;;;;;19.50;8.95;;;;;;;;;;5328051;27;20005;-68
2022/10/29 13:52:40;;;;;;;20.15;7.82;;;;;;;;;;5324939;27;20036;-69
2022/10/29 13:55:12;;;;;;;17.60;7.65;;;;;;;;;;5326101;27;20406;-68
2022/10/29 13:57:57;;;;;;;30.27;9.80;;;;;;;;;;5327773;27;20402;-69
2022/10/29 14:00:22;;;;;;;19.17;8.73;;;;;;;;;;5305788;27;20042;-69
2022/10/29 14:02:55;;;;;;;20.45;9.10;;;;;;;;;;5325548;27;20013;-68
2022/10/29 14:05:22;;;;;;;21.10;8.32;;;;;;;;;;5327293;27;20046;-69
2022/10/29 14:07:50;;;;;;;19.33;8.35;;;;;;;;;;5306349;27;20009;-69
2022/10/29 14:10:18;;;;;;;22.35;8.27;;;;;;;;;;5327912;27;20000;-69
2022/10/29 14:12:45;;;;;;;20.33;8.57;;;;;;;;;;5328032;27;20381;-69
2022/10/29 14:15:11;;;;;;;31.65;8.73;;;;;;;;;;5327237;27;20019;-70
2022/10/29 14:17:38;;;;;;;22.27;8.50;;;;;;;;;;5305476;27;20028;-71
2022/10/29 14:20:04;;;;;;;23.48;9.23;;;;;;;;;;5327236;27;20085;-70
2022/10/29 14:22:34;;;;;;;17.62;7.60;;;;;;;;;;5324525;27;20072;-70
2022/10/29 14:25:00;;;;;;;16.02;8.32;;;;;;;;;;5326803;27;20116;-68
2022/10/29 14:27:26;;;;;;;21.45;9.23;;;;;;;;;;5327250;27;20029;-69
2022/10/29 14:29:51;;;;;;;21.05;8.70;;;;;;;;;;5326429;27;20276;-69
2022/10/29 14:32:18;;;;;;;15.90;7.77;;;;;;;;;;5327043;27;20028;-70
2022/10/29 14:34:44;;;;;;;20.60;8.18;;;;;;;;;;5325448;27;20417;-69
2022/10/29 14:37:15;;;;;;;21.48;8.35;;;;;;;;;;5325630;27;20000;-69
2022/10/29 14:39:43;;;;;;;20.58;8.50;;;;;;;;;;5324905;26;20394;-69
2022/10/29 14:42:15;;;;;;;17.20;8.10;;;;;;;;;;5326771;27;20009;-69
2022/10/29 14:44:40;;;;;;;19.33;9.63;;;;;;;;;;5325421;27;20362;-69
2022/10/29 14:47:07;;;;;;;24.75;10.25;;;;;;;;;;5327182;27;20173;-70
2022/10/29 14:49:34;;;;;;;19.33;8.13;;;;;;;;;;5324831;27;20004;-69
2022/10/29 14:52:02;;;;;;;24.30;8.88;;;;;;;;;;5324971;27;20378;-70
2022/10/29 14:54:29;;;;;;;24.27;9.20;;;;;;;;;;5327293;27;20032;-69
2022/10/29 14:56:57;;;;;;;21.50;9.10;;;;;;;;;;5324643;27;20445;-70
2022/10/29 14:59:23;;;;;;;19.00;8.10;;;;;;;;;;5306807;27;20011;-68
2022/10/29 15:01:56;;;;;;;21.65;8.82;;;;;;;;;;5324528;27;20318;-68
2022/10/29 15:04:23;;;;;;;21.15;8.50;;;;;;;;;;5327019;27;20426;-68
2022/10/29 15:06:49;;;;;;;18.17;7.90;;;;;;;;;;5327501;27;20009;-70